Chaplin, Canada
Current Conditions -  °F | °C
As of 4:00 PM on Thursday 23 Oct 2014 (Local Time) from CYYN Reporting Station
Scattered Clouds Scattered Clouds  
Wind Chill: 16°   Ceiling: Unl
Heat Index: 16°   Visibility: 9mi
Dew Point:   Wind: 25mph
Humidity: 42%   Direction: 260°W
Pressure: 29.63"   Gusts: 33mph
Location:  50.47°N, 106.67°W
Report Text: CYYN 232200Z AUTO 26022G29KT 9SM SCT130 16/03 A2963 RMK SLP042 DENSITY ALT 3700FT
Loading
Personal Weather Stations






























Interactive Weather Map
Tropical Storm Tracking
New forecast layout! Learn more

10-Day Weather Forecast

Advertisements
Track Severe Weather on mobile